createdAt,value
2023-11-12T00:00:18.822Z,86.07
2023-11-12T00:03:06.858Z,86.17
2023-11-12T00:05:35.420Z,86.26
2023-11-12T00:08:03.301Z,86.08
2023-11-12T00:10:32.382Z,85.94
2023-11-12T00:13:00.621Z,85.92
2023-11-12T00:15:28.666Z,85.92
2023-11-12T00:17:56.526Z,85.76
2023-11-12T00:20:26.732Z,85.75
2023-11-12T00:22:55.790Z,85.57
2023-11-12T00:25:23.761Z,85.80
2023-11-12T00:27:51.785Z,85.80
2023-11-12T00:30:19.794Z,85.85
2023-11-12T00:32:47.779Z,85.84
2023-11-12T00:35:16.021Z,85.87
2023-11-12T00:37:44.100Z,85.73
2023-11-12T00:40:15.392Z,85.48
2023-11-12T00:42:43.492Z,85.10
2023-11-12T00:45:11.520Z,84.65
2023-11-12T00:47:39.431Z,84.24
2023-11-12T00:50:09.865Z,84.26
2023-11-12T00:52:37.902Z,84.47
2023-11-12T00:55:07.832Z,84.64
2023-11-12T00:57:39.033Z,84.81
2023-11-12T01:00:08.700Z,84.89
2023-11-12T01:02:36.875Z,84.98
2023-11-12T01:05:06.283Z,85.13
2023-11-12T01:07:34.325Z,85.18
2023-11-12T01:10:02.256Z,85.30
2023-11-12T01:12:30.392Z,85.26
2023-11-12T01:14:58.370Z,85.14
2023-11-12T01:17:26.474Z,85.22
2023-11-12T01:19:54.644Z,85.37
2023-11-12T01:22:22.635Z,85.34
2023-11-12T01:24:50.722Z,85.23
2023-11-12T01:27:18.529Z,85.11
2023-11-12T01:29:46.779Z,85.10
2023-11-12T01:32:15.237Z,85.39
2023-11-12T01:34:43.313Z,85.20
2023-11-12T01:37:11.235Z,85.40
2023-11-12T01:39:39.275Z,85.45
2023-11-12T01:42:13.076Z,85.53
2023-11-12T01:44:43.418Z,85.62
2023-11-12T01:47:14.028Z,85.58
2023-11-12T01:49:42.277Z,85.56
2023-11-12T01:52:12.640Z,85.47
2023-11-12T01:54:41.954Z,85.57
2023-11-12T01:57:11.289Z,85.72
2023-11-12T01:59:40.137Z,85.59
2023-11-12T02:02:08.860Z,85.60
2023-11-12T02:04:37.922Z,85.75
2023-11-12T02:07:06.345Z,85.87
2023-11-12T02:09:34.580Z,85.85
2023-11-12T02:12:02.996Z,85.68
2023-11-12T02:14:32.798Z,85.72
2023-11-12T02:17:01.056Z,85.56
2023-11-12T02:19:30.953Z,85.57
2023-11-12T02:21:59.477Z,85.53
2023-11-12T02:24:27.426Z,85.53
2023-11-12T02:26:55.660Z,85.63
2023-11-12T02:29:23.626Z,85.60
2023-11-12T02:31:51.609Z,85.48
2023-11-12T02:34:19.617Z,85.56
2023-11-12T02:36:47.628Z,85.57
2023-11-12T02:39:15.952Z,85.69
2023-11-12T02:41:45.669Z,85.71
2023-11-12T02:44:16.045Z,85.82
2023-11-12T02:46:44.033Z,85.92
2023-11-12T02:49:24.727Z,85.83
2023-11-12T02:51:52.633Z,85.62
2023-11-12T02:54:20.589Z,85.45
2023-11-12T02:56:48.584Z,85.58
2023-11-12T02:59:16.474Z,85.62
2023-11-12T03:01:44.896Z,85.43
2023-11-12T03:04:12.952Z,85.39
2023-11-12T03:06:41.617Z,85.41
2023-11-12T03:09:10.829Z,85.35
2023-11-12T03:11:39.187Z,85.36
2023-11-12T03:14:09.578Z,85.41
2023-11-12T03:16:37.641Z,85.55
2023-11-12T03:19:05.636Z,85.50
2023-11-12T03:21:34.160Z,85.48
2023-11-12T03:24:02.403Z,85.48
2023-11-12T03:26:30.233Z,85.47
2023-11-12T03:28:58.136Z,85.33
2023-11-12T03:31:27.203Z,85.44
2023-11-12T03:33:55.058Z,85.52
2023-11-12T03:36:23.103Z,85.61
2023-11-12T03:38:50.928Z,85.55
2023-11-12T03:41:18.848Z,85.59
2023-11-12T03:43:47.296Z,85.64
2023-11-12T03:46:15.410Z,85.61
2023-11-12T03:48:44.133Z,85.69
2023-11-12T03:51:12.214Z,85.82
2023-11-12T03:53:40.699Z,86.05
2023-11-12T03:56:08.841Z,86.07
2023-11-12T03:58:36.995Z,86.11
2023-11-12T04:01:05.382Z,86.26
2023-11-12T04:03:33.440Z,86.25
2023-11-12T04:06:02.038Z,86.29
2023-11-12T04:08:29.900Z,86.40
2023-11-12T04:10:57.967Z,86.40
2023-11-12T04:13:25.860Z,86.25
2023-11-12T04:15:54.085Z,86.08
2023-11-12T04:18:22.133Z,85.99
2023-11-12T04:20:50.087Z,86.12
2023-11-12T04:23:18.165Z,85.98
2023-11-12T04:25:49.139Z,85.92
2023-11-12T04:28:17.014Z,85.94
2023-11-12T04:30:45.013Z,85.70
2023-11-12T04:33:13.017Z,85.79
2023-11-12T04:35:40.858Z,85.75
2023-11-12T04:38:09.070Z,85.84
2023-11-12T04:40:36.850Z,85.77
2023-11-12T04:43:04.807Z,85.52
2023-11-12T04:45:32.634Z,85.46
2023-11-12T04:48:00.580Z,85.31
2023-11-12T04:50:29.941Z,85.23
2023-11-12T04:52:57.935Z,85.32
2023-11-12T04:55:25.822Z,85.47
2023-11-12T04:57:54.226Z,85.43
2023-11-12T05:00:23.581Z,85.16
2023-11-12T05:02:52.823Z,85.12
2023-11-12T05:05:20.612Z,85.03
2023-11-12T05:07:50.205Z,84.65
2023-11-12T05:10:18.056Z,84.41
2023-11-12T05:12:47.025Z,84.51
2023-11-12T05:15:15.173Z,84.42
2023-11-12T05:17:43.083Z,84.43
2023-11-12T05:20:11.562Z,84.17
2023-11-12T05:22:39.490Z,84.12
2023-11-12T05:25:07.705Z,84.07
2023-11-12T05:27:36.085Z,84.09
2023-11-12T05:30:04.603Z,84.05
2023-11-12T05:32:32.521Z,84.12
2023-11-12T05:35:00.547Z,84.11
2023-11-12T05:37:28.863Z,84.23
2023-11-12T05:39:56.741Z,84.32
2023-11-12T05:42:24.918Z,84.08
2023-11-12T05:44:53.454Z,84.29
2023-11-12T05:47:21.356Z,84.53
2023-11-12T05:49:49.235Z,84.43
2023-11-12T05:52:17.403Z,84.42
2023-11-12T05:54:45.415Z,84.62
2023-11-12T05:57:13.435Z,84.66
2023-11-12T05:59:41.324Z,84.50
2023-11-12T06:02:09.734Z,84.40
2023-11-12T06:04:38.018Z,84.47
2023-11-12T06:07:06.007Z,84.66
2023-11-12T06:09:34.011Z,84.64
2023-11-12T06:12:06.277Z,84.44
2023-11-12T06:14:36.785Z,84.27
2023-11-12T06:17:05.719Z,84.32
2023-11-12T06:19:34.085Z,84.05
2023-11-12T06:22:02.715Z,83.72
2023-11-12T06:24:31.057Z,83.67
2023-11-12T06:26:58.999Z,83.69
2023-11-12T06:29:26.984Z,83.42
2023-11-12T06:31:54.908Z,83.26
2023-11-12T06:34:23.175Z,82.92
2023-11-12T06:36:51.071Z,82.94
2023-11-12T06:39:19.024Z,82.28
2023-11-12T06:41:46.956Z,82.39
2023-11-12T06:44:14.975Z,82.27
2023-11-12T06:46:46.461Z,82.31
2023-11-12T06:49:14.951Z,82.34
2023-11-12T06:51:43.640Z,82.17
2023-11-12T06:54:11.986Z,82.20
2023-11-12T06:56:39.885Z,82.30
2023-11-12T06:59:07.896Z,82.12
2023-11-12T07:01:38.748Z,81.65
2023-11-12T07:04:08.040Z,81.73
2023-11-12T07:06:36.264Z,81.42
2023-11-12T07:09:05.410Z,81.28
2023-11-12T07:11:33.226Z,81.27
2023-11-12T07:14:01.559Z,81.38
2023-11-12T07:16:29.855Z,81.52
2023-11-12T07:18:58.371Z,81.65
2023-11-12T07:21:31.501Z,81.71
2023-11-12T07:24:00.670Z,81.70
2023-11-12T07:26:28.925Z,81.67
2023-11-12T07:28:56.924Z,81.67
2023-11-12T07:31:25.786Z,81.64
2023-11-12T07:33:54.289Z,81.41
2023-11-12T07:36:22.960Z,81.41
2023-11-12T07:38:51.798Z,81.38
2023-11-12T07:41:20.817Z,81.28
2023-11-12T07:43:48.842Z,81.40
2023-11-12T07:46:17.568Z,81.17
2023-11-12T07:48:45.692Z,81.08
2023-11-12T07:51:13.886Z,80.84
2023-11-12T07:53:41.722Z,80.72
2023-11-12T07:56:12.733Z,80.54
2023-11-12T07:58:40.548Z,79.17
2023-11-12T08:01:08.554Z,78.81
2023-11-12T08:03:36.630Z,78.77
2023-11-12T08:06:04.844Z,78.52
2023-11-12T08:08:32.689Z,78.35
2023-11-12T08:11:03.603Z,78.71
2023-11-12T08:13:31.535Z,78.98
2023-11-12T08:15:59.651Z,78.99
2023-11-12T08:18:27.659Z,78.49
2023-11-12T08:20:56.240Z,78.22
2023-11-12T08:23:24.395Z,78.59
2023-11-12T08:25:52.253Z,78.53
2023-11-12T08:28:23.497Z,78.37
2023-11-12T08:30:51.974Z,77.96
2023-11-12T08:33:20.138Z,77.39
2023-11-12T08:35:48.083Z,77.57
2023-11-12T08:38:16.131Z,77.74
2023-11-12T08:40:45.933Z,77.42
2023-11-12T08:43:15.953Z,76.82
2023-11-12T08:45:44.161Z,76.32
2023-11-12T08:48:12.359Z,76.63
2023-11-12T08:50:41.029Z,77.03
2023-11-12T08:53:08.926Z,76.73
2023-11-12T08:55:36.904Z,76.52
2023-11-12T08:58:04.826Z,76.43
2023-11-12T09:00:33.506Z,75.71
2023-11-12T09:03:01.561Z,75.00
2023-11-12T09:05:32.841Z,74.91
2023-11-12T09:08:02.648Z,75.03
2023-11-12T09:10:30.685Z,75.43
2023-11-12T09:12:58.863Z,75.59
2023-11-12T09:15:26.810Z,75.75
2023-11-12T09:17:55.640Z,75.86
2023-11-12T09:20:23.937Z,75.73
2023-11-12T09:22:51.923Z,75.69
2023-11-12T09:25:20.005Z,75.80
2023-11-12T09:27:47.845Z,75.45
2023-11-12T09:30:16.048Z,74.92
2023-11-12T09:32:44.188Z,75.05
2023-11-12T09:35:12.457Z,75.30
2023-11-12T09:37:40.377Z,75.33
2023-11-12T09:40:09.726Z,74.93
2023-11-12T09:42:53.246Z,74.81
2023-11-12T09:45:21.388Z,75.00
2023-11-12T09:47:55.616Z,75.26
2023-11-12T09:50:25.472Z,75.23
2023-11-12T09:52:54.774Z,75.27
2023-11-12T09:55:23.062Z,75.29
2023-11-12T09:57:53.023Z,75.47
2023-11-12T10:00:21.433Z,75.11
2023-11-12T10:02:50.268Z,74.85
2023-11-12T10:05:18.460Z,74.12
2023-11-12T10:07:47.576Z,73.82
2023-11-12T10:10:27.714Z,73.85
2023-11-12T10:12:56.012Z,73.74
2023-11-12T10:15:29.372Z,73.97
2023-11-12T10:18:01.101Z,74.01
2023-11-12T10:20:41.424Z,73.25
2023-11-12T10:23:32.643Z,73.62
2023-11-12T10:26:03.453Z,73.47
2023-11-12T10:28:35.698Z,73.68
2023-11-12T10:31:04.335Z,73.69
2023-11-12T10:33:32.642Z,72.90
2023-11-12T10:36:09.112Z,73.13
2023-11-12T10:38:48.969Z,72.88
2023-11-12T10:41:17.300Z,73.06
2023-11-12T10:43:58.541Z,73.38
2023-11-12T10:46:26.996Z,73.25
2023-11-12T10:48:57.116Z,73.49
2023-11-12T10:51:27.181Z,73.78
2023-11-12T10:54:00.135Z,73.68
2023-11-12T10:56:28.507Z,73.77
2023-11-12T10:58:57.664Z,73.07
2023-11-12T11:01:27.303Z,72.71
2023-11-12T11:03:56.798Z,71.90
2023-11-12T11:06:26.055Z,71.70
2023-11-12T11:08:54.774Z,71.58
2023-11-12T11:11:23.582Z,71.50
2023-11-12T11:13:51.474Z,71.30
2023-11-12T11:16:47.436Z,71.03
2023-11-12T11:19:15.901Z,71.03
2023-11-12T11:22:22.392Z,70.88
2023-11-12T11:24:50.765Z,71.08
2023-11-12T11:27:20.753Z,71.58
2023-11-12T11:30:07.709Z,71.39
2023-11-12T11:32:37.052Z,71.29
2023-11-12T11:35:18.571Z,72.01
2023-11-12T11:38:08.952Z,71.87
2023-11-12T11:40:38.407Z,71.59
2023-11-12T11:43:24.802Z,71.62
2023-11-12T11:46:12.946Z,71.65
2023-11-12T11:48:44.276Z,71.81
2023-11-12T11:51:35.054Z,71.72
2023-11-12T11:54:07.447Z,71.63
2023-11-12T11:56:35.477Z,71.66
2023-11-12T11:59:04.178Z,71.56
2023-11-12T12:01:45.416Z,71.30
2023-11-12T12:04:15.149Z,71.07
2023-11-12T12:06:48.421Z,71.67
2023-11-12T12:09:20.331Z,71.24
2023-11-12T12:11:52.990Z,71.32
2023-11-12T12:14:23.072Z,71.00
2023-11-12T12:16:51.713Z,71.06
2023-11-12T12:19:23.405Z,70.82
2023-11-12T12:21:53.549Z,70.90
2023-11-12T12:24:22.698Z,70.57
2023-11-12T12:26:51.547Z,70.71
2023-11-12T12:29:24.519Z,70.79
2023-11-12T12:31:55.818Z,70.84
2023-11-12T12:34:26.310Z,70.88
2023-11-12T12:37:13.715Z,70.80
2023-11-12T12:40:02.502Z,71.86
2023-11-12T12:42:32.127Z,74.87
2023-11-12T12:45:00.206Z,71.72
2023-11-12T12:47:36.927Z,70.41
2023-11-12T12:50:33.906Z,69.40
2023-11-12T12:53:16.338Z,69.01
2023-11-12T12:55:45.616Z,69.20
2023-11-12T12:58:13.857Z,69.11
2023-11-12T13:00:44.561Z,69.51
2023-11-12T13:03:28.228Z,69.65
2023-11-12T13:05:58.872Z,69.18
2023-11-12T13:08:28.978Z,69.06
2023-11-12T13:10:57.022Z,68.33
2023-11-12T13:13:26.693Z,68.40
2023-11-12T13:15:55.250Z,68.35
2023-11-12T13:18:25.035Z,68.04
2023-11-12T13:20:52.965Z,68.12
2023-11-12T13:23:21.426Z,67.74
2023-11-12T13:25:51.247Z,67.91
2023-11-12T13:28:19.296Z,68.02
2023-11-12T13:30:48.863Z,68.02
2023-11-12T13:33:17.508Z,68.22
2023-11-12T13:35:46.433Z,67.41
2023-11-12T13:38:14.555Z,67.26
2023-11-12T13:40:42.503Z,67.78
2023-11-12T13:43:10.999Z,67.46
2023-11-12T13:45:40.171Z,67.50
2023-11-12T13:48:10.190Z,67.81
2023-11-12T13:50:39.266Z,67.87
2023-11-12T13:53:12.974Z,67.69
2023-11-12T13:55:42.775Z,67.15
2023-11-12T13:58:12.809Z,67.16
2023-11-12T14:00:43.205Z,67.44
2023-11-12T14:03:12.022Z,67.28
2023-11-12T14:05:41.257Z,67.19
2023-11-12T14:08:13.017Z,67.24
2023-11-12T14:10:41.775Z,67.67
2023-11-12T14:13:11.087Z,67.63
2023-11-12T14:15:40.750Z,67.40
2023-11-12T14:18:09.257Z,67.12
2023-11-12T14:20:37.600Z,67.70
2023-11-12T14:23:07.578Z,68.10
2023-11-12T14:25:35.804Z,68.17
2023-11-12T14:28:04.904Z,68.37
2023-11-12T14:30:38.833Z,68.62
2023-11-12T14:33:08.341Z,68.15
2023-11-12T14:35:36.250Z,68.47
2023-11-12T14:38:04.279Z,68.22
2023-11-12T14:40:32.225Z,68.03
2023-11-12T14:43:01.324Z,68.20
2023-11-12T14:45:31.379Z,68.23
2023-11-12T14:48:01.350Z,68.34
2023-11-12T14:50:31.190Z,68.53
2023-11-12T14:52:59.419Z,68.65
2023-11-12T14:55:29.034Z,68.71
2023-11-12T14:57:58.353Z,69.02
2023-11-12T15:00:31.042Z,69.31
2023-11-12T15:03:01.539Z,69.61
2023-11-12T15:05:29.963Z,69.82
2023-11-12T15:07:58.247Z,69.98
2023-11-12T15:10:26.331Z,69.91
2023-11-12T15:12:54.377Z,69.89
2023-11-12T15:15:22.997Z,69.87
2023-11-12T15:17:54.613Z,69.94
2023-11-12T15:20:23.374Z,69.77
2023-11-12T15:22:52.430Z,69.83
2023-11-12T15:25:21.317Z,69.87
2023-11-12T15:27:50.346Z,69.80
2023-11-12T15:30:20.750Z,69.92
2023-11-12T15:32:50.297Z,69.89
2023-11-12T15:35:19.744Z,69.94
2023-11-12T15:37:48.167Z,70.28
2023-11-12T15:40:20.366Z,70.41
2023-11-12T15:42:55.549Z,70.51
2023-11-12T15:45:26.915Z,70.63
2023-11-12T15:47:55.971Z,70.81
2023-11-12T15:50:27.070Z,70.91
2023-11-12T15:52:55.308Z,70.99
2023-11-12T15:55:23.514Z,70.97
2023-11-12T15:57:51.359Z,71.04
2023-11-12T16:00:19.764Z,71.17
2023-11-12T16:02:51.284Z,71.31
2023-11-12T16:05:21.243Z,71.44
2023-11-12T16:07:49.758Z,71.32
2023-11-12T16:10:17.704Z,71.32
2023-11-12T16:12:45.785Z,70.99
2023-11-12T16:15:16.832Z,70.50
2023-11-12T16:17:47.133Z,70.14
2023-11-12T16:20:16.587Z,70.01
2023-11-12T16:22:48.006Z,69.76
2023-11-12T16:25:17.938Z,69.61
2023-11-12T16:27:46.249Z,69.73
2023-11-12T16:30:14.738Z,69.94
2023-11-12T16:32:43.173Z,69.76
2023-11-12T16:35:12.375Z,69.75
2023-11-12T16:37:49.889Z,69.83
2023-11-12T16:40:20.016Z,69.93
2023-11-12T16:42:49.690Z,69.99
2023-11-12T16:45:18.674Z,70.24
2023-11-12T16:47:47.517Z,70.28
2023-11-12T16:50:17.093Z,70.29
2023-11-12T16:52:45.228Z,70.49
2023-11-12T16:55:13.598Z,70.79
2023-11-12T16:57:44.302Z,70.81
2023-11-12T17:00:13.540Z,71.05
2023-11-12T17:02:43.356Z,71.00
2023-11-12T17:05:13.198Z,71.11
2023-11-12T17:07:42.516Z,71.14
2023-11-12T17:10:10.869Z,71.33
2023-11-12T17:12:39.230Z,71.31
2023-11-12T17:15:10.161Z,71.35
2023-11-12T17:17:38.966Z,71.33
2023-11-12T17:20:07.437Z,71.40
2023-11-12T17:22:35.428Z,71.34
2023-11-12T17:25:04.220Z,71.42
2023-11-12T17:27:32.320Z,71.55
2023-11-12T17:30:02.294Z,71.53
2023-11-12T17:32:30.148Z,71.46
2023-11-12T17:34:58.224Z,71.47
2023-11-12T17:37:27.209Z,71.65
2023-11-12T17:39:59.320Z,71.74
2023-11-12T17:42:29.149Z,71.72
2023-11-12T17:44:58.645Z,71.59
2023-11-12T17:47:27.430Z,71.60
2023-11-12T17:50:00.704Z,71.75
2023-11-12T17:52:35.808Z,71.70
2023-11-12T17:55:04.042Z,71.69
2023-11-12T17:57:36.239Z,71.74
2023-11-12T18:00:11.842Z,71.70
2023-11-12T18:02:40.844Z,71.71
2023-11-12T18:05:10.054Z,71.77
2023-11-12T18:07:42.320Z,71.98
2023-11-12T18:10:12.757Z,71.91
2023-11-12T18:12:42.841Z,71.92
2023-11-12T18:15:14.972Z,71.80
2023-11-12T18:17:43.858Z,71.94
2023-11-12T18:20:15.417Z,71.92
2023-11-12T18:22:44.207Z,72.76
2023-11-12T18:25:12.764Z,73.10
2023-11-12T18:27:42.736Z,72.77
2023-11-12T18:30:12.803Z,72.51
2023-11-12T18:32:48.439Z,72.34
2023-11-12T18:35:18.520Z,72.07
2023-11-12T18:37:48.597Z,72.12
2023-11-12T18:40:21.812Z,71.91
2023-11-12T18:42:52.317Z,71.90
2023-11-12T18:45:23.891Z,71.93
2023-11-12T18:47:53.904Z,71.82
2023-11-12T18:50:27.858Z,71.97
2023-11-12T18:52:58.287Z,71.91
2023-11-12T18:55:26.790Z,71.88
2023-11-12T18:57:59.471Z,71.88
2023-11-12T19:00:28.488Z,72.06
2023-11-12T19:03:00.668Z,71.98
2023-11-12T19:05:30.014Z,71.90
2023-11-12T19:07:58.710Z,72.03
2023-11-12T19:10:31.227Z,71.88
2023-11-12T19:12:59.513Z,71.84
2023-11-12T19:15:31.210Z,71.85
2023-11-12T19:17:59.463Z,71.88
2023-11-12T19:20:34.060Z,71.93
2023-11-12T19:23:02.205Z,72.09
2023-11-12T19:25:31.139Z,72.09
2023-11-12T19:28:01.248Z,72.13
2023-11-12T19:30:31.201Z,71.87
2023-11-12T19:33:03.232Z,71.76
2023-11-12T19:35:32.144Z,72.00
2023-11-12T19:38:03.495Z,71.91
2023-11-12T19:40:34.408Z,71.95
2023-11-12T19:43:03.749Z,72.00
2023-11-12T19:45:32.086Z,72.14
2023-11-12T19:48:00.326Z,72.30
2023-11-12T19:50:28.536Z,72.30
2023-11-12T19:52:57.982Z,72.49
2023-11-12T19:55:28.962Z,72.48
2023-11-12T19:57:57.209Z,72.35
2023-11-12T20:00:25.365Z,72.38
2023-11-12T20:02:54.119Z,72.34
2023-11-12T20:05:25.257Z,72.41
2023-11-12T20:08:01.252Z,72.62
2023-11-12T20:10:29.560Z,72.52
2023-11-12T20:13:00.035Z,72.50
2023-11-12T20:15:28.820Z,72.56
2023-11-12T20:17:58.831Z,72.59
2023-11-12T20:20:27.647Z,72.57
2023-11-12T20:22:58.652Z,72.38
2023-11-12T20:25:26.947Z,72.38
2023-11-12T20:27:55.074Z,72.47
2023-11-12T20:30:29.464Z,72.53
2023-11-12T20:32:58.185Z,72.51
2023-11-12T20:35:28.690Z,72.52
2023-11-12T20:38:00.332Z,72.66
2023-11-12T20:40:28.980Z,72.57
2023-11-12T20:42:57.611Z,72.53
2023-11-12T20:45:27.874Z,72.64
2023-11-12T20:47:59.631Z,72.73
2023-11-12T20:50:28.888Z,72.65
2023-11-12T20:52:57.005Z,72.63
2023-11-12T20:55:25.957Z,72.74
2023-11-12T20:57:54.740Z,72.73
2023-11-12T21:00:23.035Z,72.63
2023-11-12T21:02:52.950Z,72.75
2023-11-12T21:05:22.238Z,72.67
2023-11-12T21:07:51.227Z,72.65
2023-11-12T21:10:22.834Z,72.77
2023-11-12T21:12:51.932Z,72.86
2023-11-12T21:15:21.031Z,72.99
2023-11-12T21:17:50.265Z,72.94
2023-11-12T21:20:18.910Z,73.00
2023-11-12T21:22:47.975Z,72.82
2023-11-12T21:25:21.449Z,72.67
2023-11-12T21:27:50.953Z,72.67
2023-11-12T21:30:27.258Z,72.55
2023-11-12T21:32:59.039Z,72.48
2023-11-12T21:35:28.172Z,72.38
2023-11-12T21:37:58.427Z,72.41
2023-11-12T21:40:27.183Z,72.43
2023-11-12T21:42:55.582Z,72.46
2023-11-12T21:45:28.600Z,72.45
2023-11-12T21:47:57.797Z,72.46
2023-11-12T21:50:27.173Z,72.58
2023-11-12T21:52:58.504Z,72.63
2023-11-12T21:55:32.158Z,72.66
2023-11-12T21:58:02.043Z,72.66
2023-11-12T22:00:30.633Z,72.60
2023-11-12T22:03:00.023Z,72.68
2023-11-12T22:05:29.395Z,72.48
2023-11-12T22:07:57.865Z,72.51
2023-11-12T22:10:26.603Z,72.51
2023-11-12T22:12:56.747Z,72.46
2023-11-12T22:15:25.229Z,72.62
2023-11-12T22:17:53.584Z,72.62
2023-11-12T22:20:22.532Z,72.66
2023-11-12T22:22:50.896Z,72.59
2023-11-12T22:25:20.184Z,72.82
2023-11-12T22:27:49.918Z,72.91
2023-11-12T22:30:20.092Z,73.11
2023-11-12T22:32:48.967Z,73.21
2023-11-12T22:35:18.060Z,73.16
2023-11-12T22:37:46.537Z,73.11
2023-11-12T22:40:15.193Z,73.15
2023-11-12T22:42:44.296Z,73.04
2023-11-12T22:45:14.186Z,72.90
2023-11-12T22:47:43.427Z,73.04
2023-11-12T22:50:18.592Z,72.91
2023-11-12T22:52:47.052Z,72.99
2023-11-12T22:55:15.301Z,72.98
2023-11-12T22:57:45.077Z,72.88
2023-11-12T23:02:59.070Z,72.86
